Pettus, Arkansas
Current Conditions -  °F | °C
As of 6:58 PM on Friday 19 Dec 2014 (Local Time) from KLRF Reporting Station
Overcast Overcast  
Wind Chill:   Ceiling: 4800
Heat Index:   Visibility: 10mi
Dew Point:   Wind: 3mph
Humidity: 84%   Direction: 30°NNE
Pressure: 30.24"   Gusts: NA
Location:  34.7557°N, 91.9476°W
Report Text: KLRF 200058Z AUTO 03003KT 10SM OVC048 05/02 A3024 RMK AO2 SLP245 T00480023
Loading
Personal Weather Stations






























Interactive Weather Map New forecast layout! Learn more

10-Day Weather Forecast

Advertisements
Track Severe Weather on mobile